Time;durP1;ratioP1;P1;durP2;ratioP2;P2;SDS_P1;SDS_P2;PMS_P1;PMS_P2;Temp;Humidity;BMP_temperature;BMP_pressure;BME280_temperature;BME280_humidity;BME280_pressure;Samples;Min_cycle;Max_cycle;Signal;HPM_P1;HPM_P2
2022/11/27 00:01:10;;;;;;;63.00;24.63;;;1.30;99.90;;;;;;5073714;28;20031;-79
2022/11/27 00:03:36;;;;;;;54.85;26.30;;;1.30;99.90;;;;;;5074107;28;20040;-79
2022/11/27 00:06:02;;;;;;;53.17;23.98;;;1.30;99.90;;;;;;5055667;28;20060;-80
2022/11/27 00:08:28;;;;;;;52.28;24.42;;;1.30;99.90;;;;;;5054161;28;20554;-80
2022/11/27 00:10:53;;;;;;;55.45;24.17;;;1.30;99.90;;;;;;5054032;28;20033;-79
2022/11/27 00:13:19;;;;;;;62.25;27.63;;;1.30;99.90;;;;;;5055077;28;20104;-79
2022/11/27 00:15:44;;;;;;;56.13;27.42;;;1.30;99.90;;;;;;5052782;28;20028;-80
2022/11/27 00:18:10;;;;;;;51.78;24.33;;;1.30;99.90;;;;;;5052718;28;20021;-79
2022/11/27 00:20:36;;;;;;;55.60;24.75;;;1.40;99.90;;;;;;5053697;28;20052;-79
2022/11/27 00:23:01;;;;;;;50.58;24.27;;;1.40;99.90;;;;;;5052610;28;20060;-81
2022/11/27 00:25:27;;;;;;;50.08;24.88;;;1.40;99.90;;;;;;5053745;28;20064;-79
2022/11/27 00:27:53;;;;;;;54.17;24.35;;;1.40;99.90;;;;;;5053844;28;20029;-81
2022/11/27 00:30:18;;;;;;;48.00;22.80;;;1.40;99.90;;;;;;5053605;28;20104;-81
2022/11/27 00:32:44;;;;;;;57.20;25.17;;;1.30;99.90;;;;;;5052512;28;20115;-79
2022/11/27 00:35:10;;;;;;;43.70;21.58;;;1.30;99.90;;;;;;5052326;28;20025;-80
2022/11/27 00:37:35;;;;;;;49.25;23.27;;;1.30;99.90;;;;;;5053441;28;20111;-80
2022/11/27 00:40:01;;;;;;;54.90;22.98;;;1.30;99.90;;;;;;5052045;28;20017;-79
2022/11/27 00:42:26;;;;;;;55.17;24.40;;;1.30;99.90;;;;;;5052712;28;20044;-80
2022/11/27 00:44:52;;;;;;;49.70;23.38;;;1.40;99.90;;;;;;5051824;28;20498;-79
2022/11/27 00:47:18;;;;;;;53.35;23.33;;;1.40;99.90;;;;;;5052054;28;20024;-79
2022/11/27 00:49:43;;;;;;;45.35;21.50;;;1.40;99.90;;;;;;5052515;28;20398;-79
2022/11/27 00:52:09;;;;;;;52.83;24.60;;;1.40;99.90;;;;;;5052069;28;20524;-79
2022/11/27 00:54:34;;;;;;;50.53;24.23;;;1.40;99.90;;;;;;5052024;28;20025;-81
2022/11/27 00:57:00;;;;;;;56.47;25.30;;;1.40;99.90;;;;;;5053200;28;20420;-79
2022/11/27 00:59:25;;;;;;;57.00;22.98;;;1.40;99.90;;;;;;5053149;28;20021;-80
2022/11/27 01:01:51;;;;;;;54.58;23.65;;;1.40;99.90;;;;;;5051917;28;20163;-80
2022/11/27 01:04:17;;;;;;;55.13;23.65;;;1.40;99.90;;;;;;5058217;28;20020;-81
2022/11/27 01:06:43;;;;;;;55.10;23.75;;;1.40;99.90;;;;;;5064104;28;20107;-79
2022/11/27 01:09:11;;;;;;;47.42;24.00;;;1.40;99.90;;;;;;5051932;28;20017;-80
2022/11/27 01:11:37;;;;;;;47.40;22.92;;;1.40;99.90;;;;;;5053065;28;20029;-80
2022/11/27 01:14:10;;;;;;;51.80;23.92;;;1.40;99.90;;;;;;5051863;28;20025;-79
2022/11/27 01:16:36;;;;;;;52.53;23.33;;;1.40;99.90;;;;;;5051756;28;20028;-80
2022/11/27 01:19:03;;;;;;;56.67;24.77;;;1.40;99.90;;;;;;5053136;28;20112;-79
2022/11/27 01:21:31;;;;;;;57.33;24.13;;;1.40;99.90;;;;;;5052979;28;20025;-80
2022/11/27 01:23:58;;;;;;;48.17;22.77;;;1.40;99.90;;;;;;5051771;28;20024;-79
2022/11/27 01:26:24;;;;;;;50.90;23.10;;;1.40;99.90;;;;;;5052719;28;20041;-79
2022/11/27 01:28:54;;;;;;;56.72;25.73;;;1.40;99.90;;;;;;5051792;28;20031;-81
2022/11/27 01:31:22;;;;;;;52.17;25.27;;;1.40;99.90;;;;;;5051610;28;20079;-79
2022/11/27 01:33:56;;;;;;;51.30;23.20;;;1.40;99.90;;;;;;5053027;28;20021;-80
2022/11/27 01:36:22;;;;;;;51.25;23.40;;;1.40;99.90;;;;;;5052839;28;20025;-81
2022/11/27 01:38:48;;;;;;;54.00;24.42;;;1.40;99.90;;;;;;5051596;28;20479;-79
2022/11/27 01:41:20;;;;;;;49.20;24.00;;;1.40;99.90;;;;;;5051513;28;20115;-79
2022/11/27 01:43:56;;;;;;;48.15;22.58;;;1.40;99.90;;;;;;5051183;28;20406;-80
2022/11/27 01:46:28;;;;;;;63.20;27.05;;;1.40;99.90;;;;;;5051386;28;20037;-79
2022/11/27 01:49:01;;;;;;;59.70;23.93;;;1.30;99.90;;;;;;5051538;28;20079;-79
2022/11/27 01:51:28;;;;;;;66.95;28.85;;;1.30;99.90;;;;;;5051330;28;20031;-80
2022/11/27 01:53:54;;;;;;;60.00;27.40;;;1.30;99.90;;;;;;5056345;28;20593;-79
2022/11/27 01:56:22;;;;;;;61.25;25.02;;;1.20;99.90;;;;;;5074886;28;20032;-81
2022/11/27 01:58:48;;;;;;;57.00;24.90;;;1.20;99.90;;;;;;5075590;28;20021;-80
2022/11/27 02:01:14;;;;;;;57.65;26.27;;;1.20;99.90;;;;;;5076215;28;20031;-81
2022/11/27 02:03:40;;;;;;;57.75;25.75;;;1.20;99.90;;;;;;5075101;28;20032;-79
2022/11/27 02:06:05;;;;;;;63.10;27.15;;;1.20;99.90;;;;;;5056921;28;20041;-79
2022/11/27 02:08:31;;;;;;;60.92;26.77;;;1.20;99.90;;;;;;5055010;28;20051;-79
2022/11/27 02:11:13;;;;;;;73.47;30.55;;;1.20;99.90;;;;;;5055183;28;20028;-80
2022/11/27 02:13:46;;;;;;;69.90;29.10;;;1.20;99.90;;;;;;5055054;28;20033;-80
2022/11/27 02:16:35;;;;;;;67.68;28.52;;;1.20;99.90;;;;;;5056389;28;20260;-80
2022/11/27 02:19:21;;;;;;;67.00;30.00;;;1.20;99.90;;;;;;5054636;28;20055;-80
2022/11/27 02:22:13;;;;;;;69.82;30.92;;;1.30;99.90;;;;;;5048129;28;20029;-81
2022/11/27 02:24:57;;;;;;;63.63;29.35;;;1.30;99.90;;;;;;5070633;28;20040;-81
2022/11/27 02:28:00;;;;;;;71.00;29.77;;;1.30;99.90;;;;;;5075995;28;20020;-80
2022/11/27 02:30:28;;;;;;;70.65;29.27;;;1.30;99.90;;;;;;5074730;28;20029;-80
2022/11/27 02:32:58;;;;;;;68.80;30.52;;;1.30;99.90;;;;;;5074554;28;20037;-79
2022/11/27 02:35:51;;;;;;;63.95;27.88;;;1.30;99.90;;;;;;5074493;28;20017;-80
2022/11/27 02:38:24;;;;;;;61.78;30.70;;;1.40;99.90;;;;;;5074526;28;20385;-80
2022/11/27 02:40:58;;;;;;;62.25;27.75;;;1.40;99.90;;;;;;5075832;28;20074;-80
2022/11/27 02:43:36;;;;;;;68.00;31.70;;;1.40;99.90;;;;;;5073858;28;20072;-79
2022/11/27 02:46:04;;;;;;;69.07;31.42;;;1.40;99.90;;;;;;5075789;28;20044;-80
2022/11/27 02:48:34;;;;;;;73.47;33.05;;;1.40;99.90;;;;;;5074272;28;20474;-79
2022/11/27 02:51:02;;;;;;;68.85;31.58;;;1.40;99.90;;;;;;5074352;28;20017;-79
2022/11/27 02:53:36;;;;;;;77.32;34.92;;;1.40;99.90;;;;;;5074225;28;20020;-79
2022/11/27 02:56:06;;;;;;;74.18;34.17;;;1.40;99.90;;;;;;5075759;28;20025;-80
2022/11/27 02:58:34;;;;;;;74.57;31.75;;;1.40;99.90;;;;;;5075484;28;20019;-79
2022/11/27 03:01:01;;;;;;;70.53;31.17;;;1.40;99.90;;;;;;5074156;28;20466;-79
2022/11/27 03:03:37;;;;;;;72.30;33.05;;;1.40;99.90;;;;;;5073340;28;20024;-79
2022/11/27 03:06:09;;;;;;;68.25;33.00;;;1.40;99.90;;;;;;5035310;28;20025;-80
2022/11/27 03:08:42;;;;;;;78.03;33.63;;;1.40;99.90;;;;;;5052578;28;20025;-78
2022/11/27 03:11:11;;;;;;;68.47;31.80;;;1.40;99.90;;;;;;5055369;28;20021;-80
2022/11/27 03:13:40;;;;;;;77.68;31.83;;;1.40;99.90;;;;;;5053884;28;20083;-81
2022/11/27 03:16:21;;;;;;;77.40;34.85;;;1.40;99.90;;;;;;5053831;28;20029;-79
2022/11/27 03:19:11;;;;;;;77.28;35.33;;;1.50;99.90;;;;;;5055196;28;20029;-80
2022/11/27 03:21:39;;;;;;;68.07;28.85;;;1.40;99.90;;;;;;5055020;28;20417;-80
2022/11/27 03:24:09;;;;;;;75.70;32.33;;;1.40;99.90;;;;;;5054867;28;20017;-80
2022/11/27 03:26:36;;;;;;;78.15;36.38;;;1.40;99.90;;;;;;5055209;28;20086;-79
2022/11/27 03:29:05;;;;;;;79.60;32.05;;;1.40;99.90;;;;;;5053525;28;20074;-79
2022/11/27 03:31:32;;;;;;;75.20;33.47;;;1.40;99.90;;;;;;5053560;28;20025;-79
2022/11/27 03:33:57;;;;;;;72.88;34.90;;;1.40;99.90;;;;;;5053350;28;20017;-79
2022/11/27 03:36:23;;;;;;;69.45;30.67;;;1.40;99.90;;;;;;5053403;28;20032;-79
2022/11/27 03:38:51;;;;;;;78.35;33.83;;;1.40;99.90;;;;;;5053444;28;20108;-80
2022/11/27 03:41:44;;;;;;;73.82;36.40;;;1.40;99.90;;;;;;5053414;28;20108;-79
2022/11/27 03:44:22;;;;;;;72.38;30.50;;;1.40;99.90;;;;;;5053217;28;20057;-79
2022/11/27 03:47:06;;;;;;;65.60;29.77;;;1.40;99.90;;;;;;5053347;28;20397;-80
2022/11/27 03:49:50;;;;;;;60.90;30.50;;;1.40;99.90;;;;;;5053136;28;20033;-79
2022/11/27 03:52:36;;;;;;;66.93;31.75;;;1.40;99.90;;;;;;5054396;28;20025;-79
2022/11/27 03:55:15;;;;;;;73.25;31.40;;;1.40;99.90;;;;;;5053078;28;20021;-80
2022/11/27 03:57:49;;;;;;;59.88;29.90;;;1.40;99.90;;;;;;5054368;28;20074;-78
2022/11/27 04:00:15;;;;;;;67.93;28.63;;;1.40;99.90;;;;;;5052955;28;20393;-80
2022/11/27 04:02:45;;;;;;;62.58;28.27;;;1.40;99.90;;;;;;5053006;28;20074;-80
2022/11/27 04:05:12;;;;;;;54.40;25.52;;;1.40;99.90;;;;;;5066318;28;20044;-78
2022/11/27 04:07:38;;;;;;;63.95;27.27;;;1.40;99.90;;;;;;5062791;28;20021;-78
2022/11/27 04:10:05;;;;;;;56.30;25.75;;;1.30;99.90;;;;;;5054012;28;20036;-78
2022/11/27 04:12:31;;;;;;;56.95;27.73;;;1.30;99.90;;;;;;5052817;28;20017;-78
2022/11/27 04:14:56;;;;;;;53.75;26.17;;;1.30;99.90;;;;;;5053597;28;20050;-79
2022/11/27 04:17:22;;;;;;;57.25;23.35;;;1.30;99.90;;;;;;5052616;28;20054;-78
2022/11/27 04:19:48;;;;;;;49.30;21.27;;;1.30;99.90;;;;;;5052694;28;20029;-78
2022/11/27 04:22:14;;;;;;;58.50;24.60;;;1.30;99.90;;;;;;5052660;28;20566;-80
2022/11/27 04:24:39;;;;;;;52.35;23.77;;;1.30;99.90;;;;;;5052371;28;20024;-80
2022/11/27 04:27:05;;;;;;;54.60;23.73;;;1.30;99.90;;;;;;5052734;28;20505;-78
2022/11/27 04:29:30;;;;;;;60.75;29.00;;;1.30;99.90;;;;;;5052408;28;20027;-80
2022/11/27 04:31:56;;;;;;;65.13;29.35;;;1.30;99.90;;;;;;5053839;28;20036;-80
2022/11/27 04:34:22;;;;;;;66.22;31.90;;;1.30;99.90;;;;;;5053508;28;20025;-80
2022/11/27 04:36:47;;;;;;;60.60;26.98;;;1.30;99.90;;;;;;5053849;28;20071;-79
2022/11/27 04:39:13;;;;;;;49.15;23.70;;;1.30;99.90;;;;;;5052978;28;20143;-78
2022/11/27 04:41:39;;;;;;;54.30;25.70;;;1.30;99.90;;;;;;5052259;28;20048;-78
2022/11/27 04:44:05;;;;;;;54.67;26.13;;;1.20;99.90;;;;;;5053442;28;20057;-78
2022/11/27 04:46:31;;;;;;;58.25;26.10;;;1.20;99.90;;;;;;5052022;28;20495;-78
2022/11/27 04:48:57;;;;;;;55.58;26.45;;;1.20;99.90;;;;;;5053234;28;20044;-79
2022/11/27 04:51:22;;;;;;;55.55;27.75;;;1.20;99.90;;;;;;5052055;28;20131;-79
2022/11/27 04:53:48;;;;;;;57.15;26.45;;;1.20;99.90;;;;;;5053325;28;20025;-79
2022/11/27 04:56:14;;;;;;;56.40;27.35;;;1.20;99.90;;;;;;5052191;28;20028;-78
2022/11/27 04:58:39;;;;;;;53.60;25.58;;;1.20;99.90;;;;;;5052064;28;20071;-79
2022/11/27 05:01:07;;;;;;;60.22;27.63;;;1.20;99.90;;;;;;5051954;28;20501;-80
2022/11/27 05:03:33;;;;;;;60.97;27.33;;;1.20;99.90;;;;;;5052382;28;20117;-78
2022/11/27 05:05:59;;;;;;;60.95;27.05;;;1.20;99.90;;;;;;5071565;28;20123;-80
2022/11/27 05:08:25;;;;;;;67.07;30.48;;;1.20;99.90;;;;;;5055260;28;20025;-79
2022/11/27 05:11:03;;;;;;;61.35;26.70;;;1.20;99.90;;;;;;5053107;28;20100;-78
2022/11/27 05:13:29;;;;;;;57.78;27.77;;;1.10;99.90;;;;;;5051891;28;20028;-78
2022/11/27 05:15:55;;;;;;;59.13;27.23;;;1.20;99.90;;;;;;5053065;28;20104;-80
2022/11/27 05:18:20;;;;;;;70.97;28.17;;;1.20;99.90;;;;;;5053078;28;20383;-80
2022/11/27 05:20:46;;;;;;;50.05;22.00;;;1.20;99.90;;;;;;5053081;28;20102;-81
2022/11/27 05:23:12;;;;;;;37.45;18.27;;;1.20;99.90;;;;;;5053108;28;20025;-78
2022/11/27 05:25:38;;;;;;;25.55;12.98;;;1.10;99.90;;;;;;5052870;28;20116;-79
2022/11/27 05:28:04;;;;;;;21.52;11.52;;;1.10;99.90;;;;;;5055555;28;20025;-79
2022/11/27 05:30:29;;;;;;;21.73;11.25;;;1.20;99.90;;;;;;5057074;28;20025;-79
2022/11/27 05:32:55;;;;;;;24.35;12.20;;;1.20;99.90;;;;;;5055839;28;20017;-79
2022/11/27 05:35:20;;;;;;;21.77;11.93;;;1.20;99.90;;;;;;5057019;28;20029;-79
2022/11/27 05:37:46;;;;;;;26.02;12.80;;;1.20;99.90;;;;;;5055919;28;20013;-80
2022/11/27 05:40:12;;;;;;;30.85;14.63;;;1.20;99.90;;;;;;5055560;28;20017;-79
2022/11/27 05:42:37;;;;;;;36.63;17.17;;;1.20;99.90;;;;;;5056601;28;20014;-79
2022/11/27 05:45:04;;;;;;;43.80;21.15;;;1.20;99.90;;;;;;5055525;28;20032;-80
2022/11/27 05:47:29;;;;;;;54.75;22.23;;;1.20;99.90;;;;;;5055501;28;20028;-80
2022/11/27 05:49:55;;;;;;;47.92;23.20;;;1.10;99.90;;;;;;5055406;28;20025;-80
2022/11/27 05:52:20;;;;;;;51.40;23.55;;;1.20;99.90;;;;;;5055334;28;20113;-81
2022/11/27 05:54:46;;;;;;;45.97;23.35;;;1.10;99.90;;;;;;5055408;28;20032;-78
2022/11/27 05:57:11;;;;;;;31.23;17.02;;;1.10;99.90;;;;;;5056686;28;20025;-79
2022/11/27 05:59:37;;;;;;;27.10;15.43;;;1.20;99.90;;;;;;5056536;28;20095;-81
2022/11/27 06:02:03;;;;;;;30.08;15.25;;;1.10;99.90;;;;;;5055328;28;20368;-79
2022/11/27 06:04:32;;;;;;;31.67;14.82;;;1.10;99.90;;;;;;5063583;28;20112;-80
2022/11/27 06:06:58;;;;;;;23.80;12.20;;;1.10;99.90;;;;;;5041192;28;20029;-80
2022/11/27 06:09:23;;;;;;;29.58;14.13;;;1.10;99.90;;;;;;5055166;28;20025;-79
2022/11/27 06:11:49;;;;;;;27.17;13.30;;;1.10;99.90;;;;;;5056442;28;20445;-80
2022/11/27 06:14:15;;;;;;;26.67;13.50;;;1.10;99.90;;;;;;5056396;28;20115;-79
2022/11/27 06:16:40;;;;;;;25.35;13.52;;;1.10;99.90;;;;;;5054842;28;20025;-79
2022/11/27 06:19:06;;;;;;;20.38;10.00;;;1.10;99.90;;;;;;5056407;28;20029;-78
2022/11/27 06:21:32;;;;;;;24.13;10.68;;;1.10;99.90;;;;;;5056029;28;20059;-78
2022/11/27 06:23:59;;;;;;;17.27;9.85;;;1.20;99.90;;;;;;5054970;28;20031;-81
2022/11/27 06:26:27;;;;;;;23.98;11.75;;;1.20;99.90;;;;;;5055657;28;20048;-80
2022/11/27 06:28:54;;;;;;;19.88;10.65;;;1.20;99.90;;;;;;5054847;28;20470;-81
2022/11/27 06:31:22;;;;;;;24.10;12.38;;;1.20;99.90;;;;;;5056002;28;20053;-79
2022/11/27 06:33:50;;;;;;;25.45;13.07;;;1.20;99.90;;;;;;5056123;28;20013;-78
2022/11/27 06:36:17;;;;;;;24.20;11.50;;;1.20;99.90;;;;;;5054630;28;20375;-79
2022/11/27 06:38:43;;;;;;;21.80;11.10;;;1.20;99.90;;;;;;5055766;28;20478;-78
2022/11/27 06:41:12;;;;;;;24.02;12.05;;;1.10;99.90;;;;;;5054472;28;20017;-80
2022/11/27 06:43:38;;;;;;;46.97;21.30;;;1.10;99.90;;;;;;5055472;28;20041;-79
2022/11/27 06:46:05;;;;;;;54.85;27.02;;;1.10;99.90;;;;;;5055597;28;20031;-78
2022/11/27 06:48:33;;;;;;;61.38;28.42;;;1.10;99.90;;;;;;5054703;28;20041;-80
2022/11/27 06:51:00;;;;;;;56.45;28.88;;;1.10;99.90;;;;;;5055558;28;20039;-78
2022/11/27 06:53:26;;;;;;;55.33;26.67;;;1.10;99.90;;;;;;5054297;28;20042;-80
2022/11/27 06:55:52;;;;;;;50.95;25.15;;;1.10;99.90;;;;;;5055655;28;20107;-78
2022/11/27 06:58:17;;;;;;;47.17;22.05;;;1.20;99.90;;;;;;5054311;28;20107;-78
2022/11/27 07:00:43;;;;;;;48.17;22.05;;;1.10;99.90;;;;;;5054174;28;20576;-79
2022/11/27 07:03:09;;;;;;;44.42;21.40;;;1.10;99.90;;;;;;5054098;28;20021;-81
2022/11/27 07:05:35;;;;;;;40.38;20.85;;;1.10;99.90;;;;;;5053990;28;20414;-79
2022/11/27 07:08:01;;;;;;;47.47;22.48;;;1.10;99.90;;;;;;5053847;28;20049;-81
2022/11/27 07:10:27;;;;;;;44.42;21.02;;;1.00;99.90;;;;;;5055162;28;20071;-79
2022/11/27 07:12:52;;;;;;;45.00;21.38;;;1.10;99.90;;;;;;5053922;28;20025;-80
2022/11/27 07:15:18;;;;;;;47.50;22.15;;;1.20;99.90;;;;;;5053781;28;20103;-81
2022/11/27 07:17:43;;;;;;;49.40;23.05;;;1.20;99.90;;;;;;5053792;28;20021;-79
2022/11/27 07:20:09;;;;;;;44.13;22.30;;;1.30;99.90;;;;;;5055137;28;20482;-80
2022/11/27 07:22:35;;;;;;;48.80;21.75;;;1.30;99.90;;;;;;5053597;28;20029;-79
2022/11/27 07:25:00;;;;;;;47.85;22.33;;;1.30;99.90;;;;;;5055062;28;20103;-80
2022/11/27 07:27:26;;;;;;;41.03;20.67;;;1.40;99.90;;;;;;5055001;28;20513;-79
2022/11/27 07:29:51;;;;;;;52.95;21.33;;;1.40;99.90;;;;;;5055025;28;20021;-80
2022/11/27 07:32:17;;;;;;;42.58;19.25;;;1.30;99.90;;;;;;5054838;28;20516;-80
2022/11/27 07:34:43;;;;;;;40.97;19.60;;;1.30;99.90;;;;;;5053426;28;20025;-78
2022/11/27 07:37:08;;;;;;;37.00;19.67;;;1.30;99.90;;;;;;5072106;28;20017;-78
2022/11/27 07:39:34;;;;;;;38.13;19.27;;;1.30;99.90;;;;;;5073401;28;20030;-80
2022/11/27 07:41:59;;;;;;;44.42;22.30;;;1.30;99.90;;;;;;5074579;28;20096;-80
2022/11/27 07:44:25;;;;;;;40.65;21.55;;;1.40;99.90;;;;;;5072984;28;20090;-79
2022/11/27 07:46:51;;;;;;;37.05;20.45;;;1.40;99.90;;;;;;5074556;28;20394;-79
2022/11/27 07:49:16;;;;;;;64.82;33.05;;;1.50;99.90;;;;;;5073204;28;20111;-77
2022/11/27 07:51:42;;;;;;;69.70;33.47;;;1.50;99.90;;;;;;5072706;28;20532;-78
2022/11/27 07:54:09;;;;;;;97.93;46.30;;;1.60;99.90;;;;;;5073129;28;20029;-80
2022/11/27 07:56:34;;;;;;;94.43;43.60;;;1.60;99.90;;;;;;5072999;28;20028;-79
2022/11/27 07:59:00;;;;;;;64.43;31.58;;;1.70;99.90;;;;;;5072990;28;20091;-80
2022/11/27 08:01:26;;;;;;;58.03;27.13;;;1.70;99.90;;;;;;5072934;28;20363;-80
2022/11/27 08:03:51;;;;;;;47.00;26.27;;;1.70;99.90;;;;;;5069295;28;20025;-78
2022/11/27 08:06:20;;;;;;;47.83;23.95;;;1.70;99.90;;;;;;5054167;28;20041;-79
2022/11/27 08:08:46;;;;;;;58.75;29.83;;;1.70;99.90;;;;;;5032846;28;20022;-80
2022/11/27 08:11:23;;;;;;;62.05;29.77;;;1.80;99.90;;;;;;5034072;28;20029;-79
2022/11/27 08:13:49;;;;;;;52.63;29.27;;;1.80;99.90;;;;;;5034036;28;20049;-79
2022/11/27 08:16:15;;;;;;;68.55;34.08;;;1.90;99.90;;;;;;5033953;28;20029;-79
2022/11/27 08:18:41;;;;;;;69.45;32.63;;;1.90;99.90;;;;;;5032561;28;20179;-79
2022/11/27 08:21:07;;;;;;;56.60;29.25;;;1.90;99.90;;;;;;5032521;28;20550;-80
2022/11/27 08:23:32;;;;;;;66.75;29.85;;;2.00;99.90;;;;;;5040081;28;20029;-80
2022/11/27 08:25:58;;;;;;;65.95;28.92;;;2.00;99.90;;;;;;5063181;28;20037;-80
2022/11/27 08:28:24;;;;;;;58.10;27.52;;;2.10;99.90;;;;;;5034809;28;20482;-79
2022/11/27 08:30:57;;;;;;;55.88;27.92;;;2.10;99.90;;;;;;5041461;28;20124;-79
2022/11/27 08:33:22;;;;;;;;;;;2.10;99.90;;;;;;5045069;28;20027;-79
2022/11/27 08:35:48;;;;;;;50.97;24.33;;;2.10;99.90;;;;;;5043204;28;20333;-80
2022/11/27 08:38:14;;;;;;;44.55;22.00;;;2.10;99.90;;;;;;5044099;28;20039;-80
2022/11/27 08:40:40;;;;;;;43.85;21.33;;;2.10;99.90;;;;;;5038564;28;20104;-79
2022/11/27 08:43:05;;;;;;;41.58;21.00;;;2.20;99.90;;;;;;5040330;28;20045;-80
2022/11/27 08:45:31;;;;;;;51.40;25.95;;;2.20;99.90;;;;;;5044358;28;20037;-80
2022/11/27 08:47:58;;;;;;;63.13;26.70;;;2.20;99.90;;;;;;5044938;28;20013;-79
2022/11/27 08:50:23;;;;;;;47.03;25.13;;;2.30;99.90;;;;;;5048030;28;20021;-80
2022/11/27 08:52:49;;;;;;;58.80;25.35;;;2.30;99.90;;;;;;5053281;28;20032;-79
2022/11/27 08:55:14;;;;;;;44.80;21.23;;;2.30;99.90;;;;;;5053240;28;20091;-79
2022/11/27 08:57:40;;;;;;;41.65;19.88;;;2.40;99.90;;;;;;5052315;28;20025;-79
2022/11/27 09:00:07;;;;;;;38.78;18.35;;;2.40;99.90;;;;;;5053641;28;20025;-80
2022/11/27 09:02:33;;;;;;;29.67;16.10;;;2.40;99.90;;;;;;5052125;28;20021;-80
2022/11/27 09:05:04;;;;;;;34.63;17.65;;;2.40;99.90;;;;;;5044699;28;20032;-79
2022/11/27 09:07:30;;;;;;;37.00;17.40;;;2.40;99.90;;;;;;5044743;28;20029;-80
2022/11/27 09:09:56;;;;;;;37.08;18.65;;;2.40;99.90;;;;;;5043903;28;20025;-80
2022/11/27 09:12:21;;;;;;;36.35;18.42;;;2.40;99.90;;;;;;5044439;28;20104;-79
2022/11/27 09:14:47;;;;;;;39.92;19.73;;;2.40;99.90;;;;;;5032042;28;20120;-81
2022/11/27 09:17:13;;;;;;;34.90;17.02;;;2.40;99.90;;;;;;5033266;28;20479;-81
2022/11/27 09:19:38;;;;;;;31.08;17.35;;;2.40;99.90;;;;;;5049741;28;20115;-80
2022/11/27 09:22:04;;;;;;;31.70;17.38;;;2.40;99.90;;;;;;5051670;28;20593;-79
2022/11/27 09:24:29;;;;;;;36.90;18.23;;;2.40;99.90;;;;;;5051614;28;20028;-79
2022/11/27 09:26:55;;;;;;;32.90;16.38;;;2.40;99.90;;;;;;5052907;28;20494;-80
2022/11/27 09:29:21;;;;;;;32.08;17.48;;;2.50;99.90;;;;;;5052735;28;20048;-80
2022/11/27 09:31:46;;;;;;;30.92;17.27;;;2.50;99.90;;;;;;5051690;28;20025;-80
2022/11/27 09:34:13;;;;;;;36.00;18.70;;;2.50;99.90;;;;;;5051639;28;20021;-80
2022/11/27 09:36:38;;;;;;;31.35;18.27;;;2.50;99.90;;;;;;5051540;28;20025;-80
2022/11/27 09:39:04;;;;;;;38.10;19.77;;;2.60;99.90;;;;;;5051388;28;20040;-81
2022/11/27 09:41:57;;;;;;;34.55;19.70;;;2.60;99.90;;;;;;5051477;28;20487;-80
2022/11/27 09:44:38;;;;;;;35.95;19.45;;;2.60;99.90;;;;;;5049586;28;20065;-80
2022/11/27 09:47:15;;;;;;;41.83;20.02;;;2.70;99.90;;;;;;5052789;28;20033;-80
2022/11/27 09:49:46;;;;;;;29.52;17.35;;;2.70;99.90;;;;;;5051224;28;20079;-80
2022/11/27 09:52:15;;;;;;;36.97;19.08;;;2.70;99.90;;;;;;5051995;28;20072;-80
2022/11/27 09:54:59;;;;;;;42.45;21.92;;;2.70;99.90;;;;;;5051368;28;20816;-79
2022/11/27 09:57:33;;;;;;;46.70;26.85;;;2.70;99.90;;;;;;5051445;28;20112;-80
2022/11/27 10:00:04;;;;;;;47.60;25.77;;;2.70;99.90;;;;;;5052959;28;20025;-80
2022/11/27 10:02:31;;;;;;;38.25;21.75;;;2.80;99.90;;;;;;5052627;28;20041;-80
2022/11/27 10:04:58;;;;;;;36.40;18.67;;;2.90;99.90;;;;;;5066106;28;20108;-80
2022/11/27 10:07:36;;;;;;;62.13;33.97;;;2.90;99.90;;;;;;5061752;28;20021;-80
2022/11/27 10:10:26;;;;;;;44.30;25.05;;;2.90;99.90;;;;;;5051397;28;20025;-80
2022/11/27 10:13:01;;;;;;;55.30;27.85;;;2.90;99.90;;;;;;5051313;28;20021;-80
2022/11/27 10:15:58;;;;;;;42.60;23.13;;;3.00;99.90;;;;;;5054798;28;20013;-80
2022/11/27 10:18:32;;;;;;;31.08;17.17;;;3.00;99.90;;;;;;5054748;28;20017;-80
2022/11/27 10:21:07;;;;;;;43.70;22.88;;;3.00;99.90;;;;;;5056034;28;20056;-80
2022/11/27 10:23:53;;;;;;;33.90;17.20;;;3.10;99.90;;;;;;5054709;28;20017;-80
2022/11/27 10:26:35;;;;;;;24.75;15.18;;;3.10;99.90;;;;;;5054814;28;20037;-80
2022/11/27 10:29:26;;;;;;;25.80;14.25;;;3.20;99.90;;;;;;5054706;28;20025;-80
2022/11/27 10:32:00;;;;;;;24.00;13.32;;;3.20;99.90;;;;;;5055913;28;20112;-80
2022/11/27 10:34:41;;;;;;;22.45;13.38;;;3.30;99.90;;;;;;5054505;28;20068;-80
2022/11/27 10:37:29;;;;;;;23.23;13.68;;;3.30;99.90;;;;;;5055963;28;20027;-80
2022/11/27 10:40:12;;;;;;;31.85;18.40;;;3.30;99.90;;;;;;5052224;28;20137;-79
2022/11/27 10:42:53;;;;;;;33.60;18.80;;;3.30;99.90;;;;;;5054225;28;20148;-80
2022/11/27 10:45:35;;;;;;;32.75;16.23;;;3.30;99.90;;;;;;5074336;28;20158;-80
2022/11/27 10:48:01;;;;;;;37.13;18.60;;;3.30;99.90;;;;;;5075685;28;20024;-80
2022/11/27 10:50:27;;;;;;;33.33;17.00;;;3.40;99.90;;;;;;5073970;28;20036;-80
2022/11/27 10:52:58;;;;;;;32.63;16.00;;;3.40;99.90;;;;;;5074354;28;20021;-80
2022/11/27 10:55:42;;;;;;;23.95;14.05;;;3.50;99.90;;;;;;5074076;28;20612;-80
2022/11/27 10:58:23;;;;;;;31.27;14.25;;;3.50;99.90;;;;;;5075259;28;20107;-80
2022/11/27 11:00:59;;;;;;;23.27;14.35;;;3.50;99.90;;;;;;5035526;28;20112;-81
2022/11/27 11:03:25;;;;;;;23.90;13.48;;;3.60;99.90;;;;;;5038746;28;20022;-80
2022/11/27 11:05:57;;;;;;;27.02;14.60;;;3.60;99.90;;;;;;5073771;28;20453;-80
2022/11/27 11:08:25;;;;;;;32.72;17.50;;;3.60;99.90;;;;;;5055871;28;20052;-80
2022/11/27 11:10:53;;;;;;;30.88;17.08;;;3.70;99.90;;;;;;5053876;28;20029;-80
2022/11/27 11:13:45;;;;;;;32.20;16.48;;;3.70;99.90;;;;;;5055194;28;20036;-79
2022/11/27 11:16:11;;;;;;;29.23;14.80;;;3.80;99.90;;;;;;5052585;28;20041;-79
2022/11/27 11:18:51;;;;;;;24.38;13.48;;;3.70;99.90;;;;;;5054937;28;20470;-80
2022/11/27 11:21:32;;;;;;;31.45;16.13;;;3.80;99.90;;;;;;5054991;28;20029;-81
2022/11/27 11:24:02;;;;;;;31.88;16.15;;;3.80;99.90;;;;;;5053525;28;20021;-80
2022/11/27 11:26:31;;;;;;;42.70;21.33;;;3.80;99.90;;;;;;5052640;28;20036;-80
2022/11/27 11:29:01;;;;;;;36.42;17.20;;;3.80;99.90;;;;;;5053461;28;20466;-81
2022/11/27 11:31:36;;;;;;;33.40;15.75;;;3.80;99.90;;;;;;5051410;28;20056;-81
2022/11/27 11:34:27;;;;;;;20.58;11.68;;;3.90;99.90;;;;;;5050871;28;20498;-80
2022/11/27 11:37:00;;;;;;;22.02;12.00;;;3.90;99.90;;;;;;5052625;28;20058;-80
2022/11/27 11:39:29;;;;;;;26.80;14.90;;;3.90;99.90;;;;;;5051616;28;20033;-81
2022/11/27 11:41:55;;;;;;;29.33;15.40;;;3.90;99.90;;;;;;5052501;28;20029;-83
2022/11/27 11:44:28;;;;;;;33.42;16.67;;;3.90;99.90;;;;;;5053802;28;20521;-82
2022/11/27 11:46:54;;;;;;;;;;;3.90;99.90;;;;;;5053406;28;20505;-80
2022/11/27 11:49:27;;;;;;;30.00;14.23;;;3.90;99.90;;;;;;5051731;28;19909;-81
2022/11/27 11:52:26;;;;;;;25.23;12.43;;;3.90;99.90;;;;;;5052333;28;20071;-82
2022/11/27 11:55:02;;;;;;;27.42;13.68;;;3.90;99.90;;;;;;5051177;28;20068;-81
2022/11/27 11:57:39;;;;;;;24.50;12.82;;;4.00;99.90;;;;;;5053040;28;20025;-81
2022/11/27 12:00:23;;;;;;;24.10;12.73;;;4.00;99.90;;;;;;5052308;28;20390;-81
2022/11/27 12:03:03;;;;;;;26.98;14.55;;;4.00;99.90;;;;;;5054496;28;20463;-81
2022/11/27 12:06:00;;;;;;;27.13;15.02;;;4.10;99.90;;;;;;5057929;28;20079;-81
2022/11/27 12:08:51;;;;;;;26.08;13.80;;;4.10;99.90;;;;;;5052648;28;20060;-81
2022/11/27 12:11:27;;;;;;;24.88;12.90;;;4.10;99.90;;;;;;5072835;28;20028;-81
2022/11/27 12:14:17;;;;;;;26.23;13.82;;;4.20;99.90;;;;;;5040536;28;20406;-81
2022/11/27 12:16:48;;;;;;;26.52;14.38;;;4.20;99.90;;;;;;5052734;28;20100;-81
2022/11/27 12:19:29;;;;;;;27.00;14.43;;;4.10;99.90;;;;;;5053782;28;20033;-81
2022/11/27 12:22:04;;;;;;;28.35;16.85;;;4.20;99.90;;;;;;5053490;28;20031;-81
2022/11/27 12:24:35;;;;;;;29.00;16.95;;;4.20;99.90;;;;;;5052533;28;20033;-80
2022/11/27 12:27:12;;;;;;;23.90;13.73;;;4.20;99.90;;;;;;5053676;28;20032;-81
2022/11/27 12:30:12;;;;;;;19.90;12.18;;;4.20;99.90;;;;;;5053336;28;20152;-80
2022/11/27 12:33:10;;;;;;;18.17;9.57;;;4.10;99.90;;;;;;5043803;28;20021;-81
2022/11/27 12:35:56;;;;;;;15.15;8.20;;;4.10;99.90;;;;;;5056091;28;20528;-80
2022/11/27 12:38:34;;;;;;;15.80;8.93;;;4.10;99.90;;;;;;5042478;28;20141;-81
2022/11/27 12:41:31;;;;;;;14.57;7.85;;;4.00;99.90;;;;;;5042611;28;20386;-81
2022/11/27 12:43:59;;;;;;;13.85;8.75;;;4.00;99.90;;;;;;5037451;28;20068;-80
2022/11/27 12:46:43;;;;;;;16.55;9.55;;;4.00;99.90;;;;;;5041806;28;20063;-80
2022/11/27 12:49:19;;;;;;;18.45;10.32;;;4.00;99.90;;;;;;5044094;28;20025;-80
2022/11/27 12:51:55;;;;;;;16.38;9.75;;;4.00;99.90;;;;;;5041216;28;20045;-81
2022/11/27 12:54:31;;;;;;;14.45;8.75;;;4.00;99.90;;;;;;5045783;28;20063;-79